sensor_id;sensor_type;location;lat;lon;timestamp;temperature;humidity
43946;DHT22;29599;51.196;4.428;2022-09-09T00:02:21;16.20;99.90
43946;DHT22;29599;51.196;4.428;2022-09-09T00:05:23;16.10;99.90
43946;DHT22;29599;51.196;4.428;2022-09-09T00:07:53;16.10;99.90
43946;DHT22;29599;51.196;4.428;2022-09-09T00:10:30;16.10;99.90
43946;DHT22;29599;51.196;4.428;2022-09-09T00:21:11;15.90;99.90
43946;DHT22;29599;51.196;4.428;2022-09-09T00:23:39;15.90;99.90
43946;DHT22;29599;51.196;4.428;2022-09-09T00:26:20;15.90;99.90
43946;DHT22;29599;51.196;4.428;2022-09-09T00:28:55;15.90;99.90
43946;DHT22;29599;51.196;4.428;2022-09-09T00:31:28;15.90;99.90
43946;DHT22;29599;51.196;4.428;2022-09-09T00:33:56;15.90;99.90
43946;DHT22;29599;51.196;4.428;2022-09-09T00:36:24;15.80;99.90
43946;DHT22;29599;51.196;4.428;2022-09-09T00:38:57;15.90;99.90
43946;DHT22;29599;51.196;4.428;2022-09-09T00:44:28;15.90;99.90
43946;DHT22;29599;51.196;4.428;2022-09-09T00:49:59;15.90;99.90
43946;DHT22;29599;51.196;4.428;2022-09-09T01:04:50;15.80;99.90
43946;DHT22;29599;51.196;4.428;2022-09-09T01:07:18;15.90;99.90
43946;DHT22;29599;51.196;4.428;2022-09-09T01:09:56;16.00;99.90
43946;DHT22;29599;51.196;4.428;2022-09-09T01:12:34;16.00;99.90
43946;DHT22;29599;51.196;4.428;2022-09-09T01:15:22;16.00;99.90
43946;DHT22;29599;51.196;4.428;2022-09-09T01:18:04;15.90;99.90
43946;DHT22;29599;51.196;4.428;2022-09-09T01:26:37;15.90;99.90
43946;DHT22;29599;51.196;4.428;2022-09-09T01:29:02;15.80;99.90
43946;DHT22;29599;51.196;4.428;2022-09-09T01:34:17;15.70;99.90
43946;DHT22;29599;51.196;4.428;2022-09-09T01:36:58;15.80;99.90
43946;DHT22;29599;51.196;4.428;2022-09-09T01:39:26;15.80;99.90
43946;DHT22;29599;51.196;4.428;2022-09-09T01:41:52;15.80;99.90
43946;DHT22;29599;51.196;4.428;2022-09-09T01:44:19;15.90;99.90
43946;DHT22;29599;51.196;4.428;2022-09-09T01:46:45;15.90;99.90
43946;DHT22;29599;51.196;4.428;2022-09-09T01:49:10;15.80;99.90
43946;DHT22;29599;51.196;4.428;2022-09-09T01:51:37;15.90;99.90
43946;DHT22;29599;51.196;4.428;2022-09-09T01:54:05;15.80;99.90
43946;DHT22;29599;51.196;4.428;2022-09-09T02:00:06;15.90;99.90
43946;DHT22;29599;51.196;4.428;2022-09-09T02:05:27;15.80;99.90
43946;DHT22;29599;51.196;4.428;2022-09-09T02:08:03;15.90;99.90
43946;DHT22;29599;51.196;4.428;2022-09-09T02:10:42;15.80;99.90
43946;DHT22;29599;51.196;4.428;2022-09-09T02:13:13;15.90;99.90
43946;DHT22;29599;51.196;4.428;2022-09-09T02:16:07;15.90;99.90
43946;DHT22;29599;51.196;4.428;2022-09-09T02:18:45;15.90;99.90
43946;DHT22;29599;51.196;4.428;2022-09-09T02:21:14;15.90;99.90
43946;DHT22;29599;51.196;4.428;2022-09-09T02:23:42;16.00;99.90
43946;DHT22;29599;51.196;4.428;2022-09-09T02:26:12;15.90;99.90
43946;DHT22;29599;51.196;4.428;2022-09-09T02:28:46;15.70;99.90
43946;DHT22;29599;51.196;4.428;2022-09-09T02:31:14;15.90;99.90
43946;DHT22;29599;51.196;4.428;2022-09-09T02:33:45;15.90;99.90
43946;DHT22;29599;51.196;4.428;2022-09-09T02:36:14;15.80;99.90
43946;DHT22;29599;51.196;4.428;2022-09-09T02:38:46;15.80;99.90
43946;DHT22;29599;51.196;4.428;2022-09-09T02:41:24;15.80;99.90
43946;DHT22;29599;51.196;4.428;2022-09-09T02:43:51;15.80;99.90
43946;DHT22;29599;51.196;4.428;2022-09-09T02:46:24;15.90;99.90
43946;DHT22;29599;51.196;4.428;2022-09-09T02:49:04;15.80;99.90
43946;DHT22;29599;51.196;4.428;2022-09-09T02:51:40;15.90;99.90
43946;DHT22;29599;51.196;4.428;2022-09-09T02:54:20;15.90;99.90
43946;DHT22;29599;51.196;4.428;2022-09-09T02:56:49;15.90;99.90
43946;DHT22;29599;51.196;4.428;2022-09-09T02:59:16;15.80;99.90
43946;DHT22;29599;51.196;4.428;2022-09-09T03:01:42;15.90;99.90
43946;DHT22;29599;51.196;4.428;2022-09-09T03:04:09;15.90;99.90
43946;DHT22;29599;51.196;4.428;2022-09-09T03:06:35;15.90;99.90
43946;DHT22;29599;51.196;4.428;2022-09-09T03:09:01;15.90;99.90
43946;DHT22;29599;51.196;4.428;2022-09-09T03:11:28;15.90;99.90
43946;DHT22;29599;51.196;4.428;2022-09-09T03:13:54;15.80;99.90
43946;DHT22;29599;51.196;4.428;2022-09-09T03:16:22;15.80;99.90
43946;DHT22;29599;51.196;4.428;2022-09-09T03:18:48;15.80;99.90
43946;DHT22;29599;51.196;4.428;2022-09-09T03:21:13;15.80;99.90
43946;DHT22;29599;51.196;4.428;2022-09-09T03:23:39;15.90;99.90
43946;DHT22;29599;51.196;4.428;2022-09-09T03:26:05;15.80;99.90
43946;DHT22;29599;51.196;4.428;2022-09-09T03:28:31;15.80;99.90
43946;DHT22;29599;51.196;4.428;2022-09-09T03:31:01;15.90;99.90
43946;DHT22;29599;51.196;4.428;2022-09-09T03:33:27;15.90;99.90
43946;DHT22;29599;51.196;4.428;2022-09-09T03:35:53;16.00;99.90
43946;DHT22;29599;51.196;4.428;2022-09-09T03:38:24;15.90;99.90
43946;DHT22;29599;51.196;4.428;2022-09-09T03:40:55;15.90;99.90
43946;DHT22;29599;51.196;4.428;2022-09-09T03:43:23;15.80;99.90
43946;DHT22;29599;51.196;4.428;2022-09-09T03:45:49;15.90;99.90
43946;DHT22;29599;51.196;4.428;2022-09-09T03:48:16;15.90;99.90
43946;DHT22;29599;51.196;4.428;2022-09-09T03:50:52;15.90;99.90
43946;DHT22;29599;51.196;4.428;2022-09-09T03:53:21;15.90;99.90
43946;DHT22;29599;51.196;4.428;2022-09-09T03:55:48;15.80;99.90
43946;DHT22;29599;51.196;4.428;2022-09-09T03:58:16;15.70;99.90
43946;DHT22;29599;51.196;4.428;2022-09-09T04:00:52;15.70;99.90
43946;DHT22;29599;51.196;4.428;2022-09-09T04:03:18;15.70;99.90
43946;DHT22;29599;51.196;4.428;2022-09-09T04:05:43;15.70;99.90
43946;DHT22;29599;51.196;4.428;2022-09-09T04:08:09;15.80;99.90
43946;DHT22;29599;51.196;4.428;2022-09-09T04:10:35;15.80;99.90
43946;DHT22;29599;51.196;4.428;2022-09-09T04:13:04;15.80;99.90
43946;DHT22;29599;51.196;4.428;2022-09-09T04:15:31;15.80;99.90
43946;DHT22;29599;51.196;4.428;2022-09-09T04:17:56;15.70;99.90
43946;DHT22;29599;51.196;4.428;2022-09-09T04:20:22;15.70;99.90
43946;DHT22;29599;51.196;4.428;2022-09-09T04:22:48;15.70;99.90
43946;DHT22;29599;51.196;4.428;2022-09-09T04:25:14;15.80;99.90
43946;DHT22;29599;51.196;4.428;2022-09-09T04:27:40;15.70;99.90
43946;DHT22;29599;51.196;4.428;2022-09-09T04:30:06;15.80;99.90
43946;DHT22;29599;51.196;4.428;2022-09-09T04:32:36;15.70;99.90
43946;DHT22;29599;51.196;4.428;2022-09-09T04:35:02;15.70;99.90
43946;DHT22;29599;51.196;4.428;2022-09-09T04:37:28;15.70;99.90
43946;DHT22;29599;51.196;4.428;2022-09-09T04:39:54;15.80;99.90
43946;DHT22;29599;51.196;4.428;2022-09-09T04:42:19;15.80;99.90
43946;DHT22;29599;51.196;4.428;2022-09-09T04:44:45;15.70;99.90
43946;DHT22;29599;51.196;4.428;2022-09-09T04:47:11;15.70;99.90
43946;DHT22;29599;51.196;4.428;2022-09-09T04:49:37;15.70;99.90
43946;DHT22;29599;51.196;4.428;2022-09-09T04:52:03;15.70;99.90
43946;DHT22;29599;51.196;4.428;2022-09-09T04:54:29;15.70;99.90
43946;DHT22;29599;51.196;4.428;2022-09-09T04:56:55;15.80;99.90
43946;DHT22;29599;51.196;4.428;2022-09-09T04:59:21;15.80;99.90
43946;DHT22;29599;51.196;4.428;2022-09-09T05:01:48;15.70;99.90
43946;DHT22;29599;51.196;4.428;2022-09-09T05:04:13;15.70;99.90
43946;DHT22;29599;51.196;4.428;2022-09-09T05:06:40;15.70;99.90
43946;DHT22;29599;51.196;4.428;2022-09-09T05:09:07;15.70;99.90
43946;DHT22;29599;51.196;4.428;2022-09-09T05:11:33;15.70;99.90
43946;DHT22;29599;51.196;4.428;2022-09-09T05:14:01;15.70;99.90
43946;DHT22;29599;51.196;4.428;2022-09-09T05:16:27;15.70;99.90
43946;DHT22;29599;51.196;4.428;2022-09-09T05:18:52;15.70;99.90
43946;DHT22;29599;51.196;4.428;2022-09-09T05:21:20;15.70;99.90
43946;DHT22;29599;51.196;4.428;2022-09-09T05:23:47;15.70;99.90
43946;DHT22;29599;51.196;4.428;2022-09-09T05:26:15;15.70;99.90
43946;DHT22;29599;51.196;4.428;2022-09-09T05:28:41;15.70;99.90
43946;DHT22;29599;51.196;4.428;2022-09-09T05:31:08;15.80;99.90
43946;DHT22;29599;51.196;4.428;2022-09-09T05:33:35;15.80;99.90
43946;DHT22;29599;51.196;4.428;2022-09-09T05:36:05;15.80;99.90
43946;DHT22;29599;51.196;4.428;2022-09-09T05:38:32;15.80;99.90
43946;DHT22;29599;51.196;4.428;2022-09-09T05:40:58;15.80;99.90
43946;DHT22;29599;51.196;4.428;2022-09-09T05:43:24;15.80;99.90
43946;DHT22;29599;51.196;4.428;2022-09-09T05:46:11;15.80;99.90
43946;DHT22;29599;51.196;4.428;2022-09-09T05:48:43;15.80;99.90
43946;DHT22;29599;51.196;4.428;2022-09-09T05:51:11;15.80;99.90
43946;DHT22;29599;51.196;4.428;2022-09-09T05:53:41;15.80;99.90
43946;DHT22;29599;51.196;4.428;2022-09-09T05:56:09;15.80;99.90
43946;DHT22;29599;51.196;4.428;2022-09-09T05:58:38;15.90;99.90
43946;DHT22;29599;51.196;4.428;2022-09-09T06:01:04;15.90;99.90
43946;DHT22;29599;51.196;4.428;2022-09-09T06:03:32;15.90;99.90
43946;DHT22;29599;51.196;4.428;2022-09-09T06:06:03;15.90;99.90
43946;DHT22;29599;51.196;4.428;2022-09-09T06:08:37;15.90;99.90
43946;DHT22;29599;51.196;4.428;2022-09-09T06:11:09;15.90;99.90
43946;DHT22;29599;51.196;4.428;2022-09-09T06:13:35;15.90;99.90
43946;DHT22;29599;51.196;4.428;2022-09-09T06:16:03;16.00;99.90
43946;DHT22;29599;51.196;4.428;2022-09-09T06:18:29;16.00;99.90
43946;DHT22;29599;51.196;4.428;2022-09-09T06:21:00;16.00;99.90
43946;DHT22;29599;51.196;4.428;2022-09-09T06:23:27;16.00;99.90
43946;DHT22;29599;51.196;4.428;2022-09-09T06:26:06;15.90;99.90
43946;DHT22;29599;51.196;4.428;2022-09-09T06:28:34;16.00;99.90
43946;DHT22;29599;51.196;4.428;2022-09-09T06:31:01;16.00;99.90
43946;DHT22;29599;51.196;4.428;2022-09-09T06:33:30;16.10;99.90
43946;DHT22;29599;51.196;4.428;2022-09-09T06:35:55;16.10;99.90
43946;DHT22;29599;51.196;4.428;2022-09-09T06:38:22;16.10;99.90
43946;DHT22;29599;51.196;4.428;2022-09-09T06:40:55;16.10;99.90
43946;DHT22;29599;51.196;4.428;2022-09-09T06:43:24;16.10;99.90
43946;DHT22;29599;51.196;4.428;2022-09-09T06:45:59;16.20;99.90
43946;DHT22;29599;51.196;4.428;2022-09-09T06:48:25;16.20;99.90
43946;DHT22;29599;51.196;4.428;2022-09-09T06:51:09;16.10;99.90
43946;DHT22;29599;51.196;4.428;2022-09-09T06:53:37;16.20;99.90
43946;DHT22;29599;51.196;4.428;2022-09-09T06:58:41;16.10;99.90
43946;DHT22;29599;51.196;4.428;2022-09-09T07:01:12;16.10;99.90
43946;DHT22;29599;51.196;4.428;2022-09-09T07:03:38;16.10;99.90
43946;DHT22;29599;51.196;4.428;2022-09-09T07:06:05;16.10;99.90
43946;DHT22;29599;51.196;4.428;2022-09-09T07:08:31;16.10;99.90
43946;DHT22;29599;51.196;4.428;2022-09-09T07:11:04;16.20;99.90
43946;DHT22;29599;51.196;4.428;2022-09-09T07:13:30;16.20;99.90
43946;DHT22;29599;51.196;4.428;2022-09-09T07:16:09;16.20;99.90
43946;DHT22;29599;51.196;4.428;2022-09-09T07:18:35;16.30;99.90
43946;DHT22;29599;51.196;4.428;2022-09-09T07:21:02;16.30;99.90
43946;DHT22;29599;51.196;4.428;2022-09-09T07:23:29;16.40;99.90
43946;DHT22;29599;51.196;4.428;2022-09-09T07:25:56;16.40;99.90
43946;DHT22;29599;51.196;4.428;2022-09-09T07:28:22;16.40;99.90
43946;DHT22;29599;51.196;4.428;2022-09-09T07:30:59;16.40;99.90
43946;DHT22;29599;51.196;4.428;2022-09-09T07:33:25;16.50;99.90
43946;DHT22;29599;51.196;4.428;2022-09-09T07:35:51;16.50;99.90
43946;DHT22;29599;51.196;4.428;2022-09-09T07:38:17;16.50;99.90
43946;DHT22;29599;51.196;4.428;2022-09-09T07:40:44;16.50;99.90
43946;DHT22;29599;51.196;4.428;2022-09-09T07:43:10;16.50;99.90
43946;DHT22;29599;51.196;4.428;2022-09-09T07:45:36;16.50;99.90
43946;DHT22;29599;51.196;4.428;2022-09-09T07:48:03;16.40;99.90
43946;DHT22;29599;51.196;4.428;2022-09-09T07:50:29;16.40;99.90
43946;DHT22;29599;51.196;4.428;2022-09-09T07:52:54;16.50;99.90
43946;DHT22;29599;51.196;4.428;2022-09-09T07:55:21;16.40;99.90
43946;DHT22;29599;51.196;4.428;2022-09-09T07:57:50;16.40;99.90
43946;DHT22;29599;51.196;4.428;2022-09-09T08:00:16;16.50;99.90
43946;DHT22;29599;51.196;4.428;2022-09-09T08:02:44;16.50;99.90
43946;DHT22;29599;51.196;4.428;2022-09-09T08:05:09;16.50;99.90
43946;DHT22;29599;51.196;4.428;2022-09-09T08:07:35;16.50;99.90
43946;DHT22;29599;51.196;4.428;2022-09-09T08:10:01;16.50;99.90
43946;DHT22;29599;51.196;4.428;2022-09-09T08:12:27;16.50;99.90
43946;DHT22;29599;51.196;4.428;2022-09-09T08:14:53;16.50;99.90
43946;DHT22;29599;51.196;4.428;2022-09-09T08:17:19;16.50;99.90
43946;DHT22;29599;51.196;4.428;2022-09-09T08:19:45;16.60;99.90
43946;DHT22;29599;51.196;4.428;2022-09-09T08:22:11;16.60;99.90
43946;DHT22;29599;51.196;4.428;2022-09-09T08:24:36;16.50;99.90
43946;DHT22;29599;51.196;4.428;2022-09-09T08:27:02;16.60;99.90
43946;DHT22;29599;51.196;4.428;2022-09-09T08:29:27;16.60;99.90
43946;DHT22;29599;51.196;4.428;2022-09-09T08:31:55;16.60;99.90
43946;DHT22;29599;51.196;4.428;2022-09-09T08:34:23;16.60;99.90
43946;DHT22;29599;51.196;4.428;2022-09-09T08:36:49;16.60;99.90
43946;DHT22;29599;51.196;4.428;2022-09-09T08:39:18;16.60;99.90
43946;DHT22;29599;51.196;4.428;2022-09-09T08:53:16;16.80;99.90
43946;DHT22;29599;51.196;4.428;2022-09-09T08:55:52;16.90;99.90
43946;DHT22;29599;51.196;4.428;2022-09-09T08:58:25;16.80;99.90
43946;DHT22;29599;51.196;4.428;2022-09-09T09:03:54;16.80;99.90
43946;DHT22;29599;51.196;4.428;2022-09-09T09:06:39;16.80;99.90
43946;DHT22;29599;51.196;4.428;2022-09-09T09:12:27;16.80;99.90
43946;DHT22;29599;51.196;4.428;2022-09-09T09:14:54;16.90;99.90
43946;DHT22;29599;51.196;4.428;2022-09-09T09:17:26;16.80;99.90
43946;DHT22;29599;51.196;4.428;2022-09-09T09:19:53;16.80;99.90
43946;DHT22;29599;51.196;4.428;2022-09-09T09:22:20;16.80;99.90
43946;DHT22;29599;51.196;4.428;2022-09-09T09:25:11;16.80;99.90
43946;DHT22;29599;51.196;4.428;2022-09-09T09:27:59;16.80;99.90
43946;DHT22;29599;51.196;4.428;2022-09-09T09:31:08;16.80;99.90
43946;DHT22;29599;51.196;4.428;2022-09-09T09:33:45;16.80;99.90
43946;DHT22;29599;51.196;4.428;2022-09-09T09:36:12;16.70;99.90
43946;DHT22;29599;51.196;4.428;2022-09-09T09:39:01;16.70;99.90
43946;DHT22;29599;51.196;4.428;2022-09-09T09:41:42;16.60;99.90
43946;DHT22;29599;51.196;4.428;2022-09-09T09:46:48;16.60;99.90
43946;DHT22;29599;51.196;4.428;2022-09-09T09:49:13;16.60;99.90
43946;DHT22;29599;51.196;4.428;2022-09-09T09:51:39;16.70;99.90
43946;DHT22;29599;51.196;4.428;2022-09-09T09:54:34;16.60;99.90
43946;DHT22;29599;51.196;4.428;2022-09-09T09:57:13;16.60;99.90
43946;DHT22;29599;51.196;4.428;2022-09-09T09:59:40;16.70;99.90
43946;DHT22;29599;51.196;4.428;2022-09-09T10:02:31;16.70;99.90
43946;DHT22;29599;51.196;4.428;2022-09-09T10:05:02;16.70;99.90
43946;DHT22;29599;51.196;4.428;2022-09-09T10:07:28;16.70;99.90
43946;DHT22;29599;51.196;4.428;2022-09-09T10:09:57;16.60;99.90
43946;DHT22;29599;51.196;4.428;2022-09-09T10:15:11;16.60;99.90
43946;DHT22;29599;51.196;4.428;2022-09-09T10:20:51;16.60;99.90
43946;DHT22;29599;51.196;4.428;2022-09-09T10:35:13;16.80;99.90
43946;DHT22;29599;51.196;4.428;2022-09-09T10:40:28;16.90;99.90
43946;DHT22;29599;51.196;4.428;2022-09-09T10:45:56;17.00;99.90
43946;DHT22;29599;51.196;4.428;2022-09-09T10:48:50;17.00;99.90
43946;DHT22;29599;51.196;4.428;2022-09-09T10:51:40;16.90;99.90
43946;DHT22;29599;51.196;4.428;2022-09-09T10:56:57;17.00;99.90
43946;DHT22;29599;51.196;4.428;2022-09-09T10:59:35;17.00;99.90
43946;DHT22;29599;51.196;4.428;2022-09-09T11:02:27;17.00;99.90
43946;DHT22;29599;51.196;4.428;2022-09-09T11:05:34;17.10;99.90
43946;DHT22;29599;51.196;4.428;2022-09-09T11:08:05;17.00;99.90
43946;DHT22;29599;51.196;4.428;2022-09-09T11:19:03;17.10;99.90
43946;DHT22;29599;51.196;4.428;2022-09-09T11:21:37;17.10;99.90
43946;DHT22;29599;51.196;4.428;2022-09-09T11:24:23;17.20;99.90
43946;DHT22;29599;51.196;4.428;2022-09-09T11:30:29;17.60;99.90
43946;DHT22;29599;51.196;4.428;2022-09-09T11:40:54;17.50;99.90
43946;DHT22;29599;51.196;4.428;2022-09-09T11:43:31;17.60;99.90
43946;DHT22;29599;51.196;4.428;2022-09-09T11:46:00;17.60;99.90
43946;DHT22;29599;51.196;4.428;2022-09-09T11:48:40;17.60;99.90
43946;DHT22;29599;51.196;4.428;2022-09-09T11:54:00;17.70;99.90
43946;DHT22;29599;51.196;4.428;2022-09-09T11:56:42;17.80;99.90
43946;DHT22;29599;51.196;4.428;2022-09-09T11:59:49;17.80;99.90
43946;DHT22;29599;51.196;4.428;2022-09-09T12:02:29;17.90;99.90
43946;DHT22;29599;51.196;4.428;2022-09-09T12:05:06;17.90;99.90
43946;DHT22;29599;51.196;4.428;2022-09-09T12:07:53;18.00;99.90
43946;DHT22;29599;51.196;4.428;2022-09-09T12:10:30;18.10;99.90
43946;DHT22;29599;51.196;4.428;2022-09-09T12:13:27;18.20;99.90
43946;DHT22;29599;51.196;4.428;2022-09-09T12:15:53;18.30;99.90
43946;DHT22;29599;51.196;4.428;2022-09-09T12:18:33;18.30;99.90
43946;DHT22;29599;51.196;4.428;2022-09-09T12:23:47;18.30;99.90
43946;DHT22;29599;51.196;4.428;2022-09-09T12:26:22;18.30;99.90
43946;DHT22;29599;51.196;4.428;2022-09-09T12:31:27;18.30;99.90
43946;DHT22;29599;51.196;4.428;2022-09-09T12:36:53;18.30;99.90
43946;DHT22;29599;51.196;4.428;2022-09-09T12:39:31;18.40;99.90
43946;DHT22;29599;51.196;4.428;2022-09-09T12:41:59;18.40;99.90
43946;DHT22;29599;51.196;4.428;2022-09-09T12:44:25;18.30;99.90
43946;DHT22;29599;51.196;4.428;2022-09-09T12:46:54;18.40;99.90
43946;DHT22;29599;51.196;4.428;2022-09-09T12:49:33;18.40;99.90
43946;DHT22;29599;51.196;4.428;2022-09-09T12:52:13;18.30;99.90
43946;DHT22;29599;51.196;4.428;2022-09-09T12:54:44;18.30;99.90
43946;DHT22;29599;51.196;4.428;2022-09-09T12:57:12;18.40;99.90
43946;DHT22;29599;51.196;4.428;2022-09-09T12:59:41;18.40;99.90
43946;DHT22;29599;51.196;4.428;2022-09-09T13:02:25;18.40;99.90
43946;DHT22;29599;51.196;4.428;2022-09-09T13:04:51;18.50;99.90
43946;DHT22;29599;51.196;4.428;2022-09-09T13:07:20;18.60;99.90
43946;DHT22;29599;51.196;4.428;2022-09-09T13:09:48;18.70;99.90
43946;DHT22;29599;51.196;4.428;2022-09-09T13:12:22;18.70;99.90
43946;DHT22;29599;51.196;4.428;2022-09-09T13:14:55;18.70;99.90
43946;DHT22;29599;51.196;4.428;2022-09-09T13:17:24;18.70;99.90
43946;DHT22;29599;51.196;4.428;2022-09-09T13:19:51;18.80;99.90
43946;DHT22;29599;51.196;4.428;2022-09-09T13:24:46;18.80;99.90
43946;DHT22;29599;51.196;4.428;2022-09-09T13:27:29;18.80;99.90
43946;DHT22;29599;51.196;4.428;2022-09-09T13:29:56;18.90;99.90
43946;DHT22;29599;51.196;4.428;2022-09-09T13:32:23;19.00;99.90
43946;DHT22;29599;51.196;4.428;2022-09-09T13:34:54;19.10;99.90
43946;DHT22;29599;51.196;4.428;2022-09-09T13:37:33;19.20;99.90
43946;DHT22;29599;51.196;4.428;2022-09-09T13:40:00;19.20;99.90
43946;DHT22;29599;51.196;4.428;2022-09-09T13:42:29;19.20;99.90
43946;DHT22;29599;51.196;4.428;2022-09-09T13:44:57;19.20;99.90
43946;DHT22;29599;51.196;4.428;2022-09-09T13:47:35;19.10;99.90
43946;DHT22;29599;51.196;4.428;2022-09-09T13:50:23;19.10;99.90
43946;DHT22;29599;51.196;4.428;2022-09-09T13:52:54;19.10;99.90
43946;DHT22;29599;51.196;4.428;2022-09-09T13:55:21;19.20;99.90
43946;DHT22;29599;51.196;4.428;2022-09-09T14:00:17;19.20;99.90
43946;DHT22;29599;51.196;4.428;2022-09-09T14:02:43;19.10;99.90
43946;DHT22;29599;51.196;4.428;2022-09-09T14:05:09;19.10;99.90
43946;DHT22;29599;51.196;4.428;2022-09-09T14:07:38;19.10;99.90
43946;DHT22;29599;51.196;4.428;2022-09-09T14:10:05;19.00;99.90
43946;DHT22;29599;51.196;4.428;2022-09-09T14:12:30;19.10;99.90
43946;DHT22;29599;51.196;4.428;2022-09-09T14:14:56;19.00;99.90
43946;DHT22;29599;51.196;4.428;2022-09-09T14:17:21;19.10;99.90
43946;DHT22;29599;51.196;4.428;2022-09-09T14:19:48;19.00;99.90
43946;DHT22;29599;51.196;4.428;2022-09-09T14:22:14;19.00;99.90
43946;DHT22;29599;51.196;4.428;2022-09-09T14:24:43;19.10;99.90
43946;DHT22;29599;51.196;4.428;2022-09-09T14:27:08;19.10;99.90
43946;DHT22;29599;51.196;4.428;2022-09-09T14:29:34;19.10;99.90
43946;DHT22;29599;51.196;4.428;2022-09-09T14:31:59;19.20;99.90
43946;DHT22;29599;51.196;4.428;2022-09-09T14:34:26;19.20;99.90
43946;DHT22;29599;51.196;4.428;2022-09-09T14:36:52;19.20;99.90
43946;DHT22;29599;51.196;4.428;2022-09-09T14:39:17;19.30;99.90
43946;DHT22;29599;51.196;4.428;2022-09-09T14:41:43;19.30;99.90
43946;DHT22;29599;51.196;4.428;2022-09-09T14:44:08;19.30;99.90
43946;DHT22;29599;51.196;4.428;2022-09-09T14:46:35;19.20;99.90
43946;DHT22;29599;51.196;4.428;2022-09-09T14:49:01;19.20;99.90
43946;DHT22;29599;51.196;4.428;2022-09-09T14:51:26;19.20;99.90
43946;DHT22;29599;51.196;4.428;2022-09-09T14:53:58;19.10;99.90
43946;DHT22;29599;51.196;4.428;2022-09-09T14:56:26;19.20;99.90
43946;DHT22;29599;51.196;4.428;2022-09-09T14:58:55;19.20;99.90
43946;DHT22;29599;51.196;4.428;2022-09-09T15:01:22;19.20;99.90
43946;DHT22;29599;51.196;4.428;2022-09-09T15:03:53;19.10;99.90
43946;DHT22;29599;51.196;4.428;2022-09-09T15:06:20;19.10;99.90
43946;DHT22;29599;51.196;4.428;2022-09-09T15:08:46;19.10;99.90
43946;DHT22;29599;51.196;4.428;2022-09-09T15:11:14;19.00;99.90
43946;DHT22;29599;51.196;4.428;2022-09-09T15:13:41;19.00;99.90
43946;DHT22;29599;51.196;4.428;2022-09-09T15:16:10;19.00;99.90
43946;DHT22;29599;51.196;4.428;2022-09-09T15:18:37;19.00;99.90
43946;DHT22;29599;51.196;4.428;2022-09-09T15:21:05;18.90;99.90
43946;DHT22;29599;51.196;4.428;2022-09-09T15:23:35;18.90;99.90
43946;DHT22;29599;51.196;4.428;2022-09-09T15:26:01;18.90;99.90
43946;DHT22;29599;51.196;4.428;2022-09-09T15:28:26;18.90;99.90
43946;DHT22;29599;51.196;4.428;2022-09-09T15:30:53;18.90;99.90
43946;DHT22;29599;51.196;4.428;2022-09-09T15:33:20;18.80;99.90
43946;DHT22;29599;51.196;4.428;2022-09-09T15:35:46;18.80;99.90
43946;DHT22;29599;51.196;4.428;2022-09-09T15:38:11;18.90;99.90
43946;DHT22;29599;51.196;4.428;2022-09-09T15:40:41;18.90;99.90
43946;DHT22;29599;51.196;4.428;2022-09-09T15:43:07;18.90;99.90
43946;DHT22;29599;51.196;4.428;2022-09-09T15:45:35;18.80;99.90
43946;DHT22;29599;51.196;4.428;2022-09-09T15:48:01;18.80;99.90
43946;DHT22;29599;51.196;4.428;2022-09-09T15:50:28;18.90;99.90
43946;DHT22;29599;51.196;4.428;2022-09-09T15:52:55;18.90;99.90
43946;DHT22;29599;51.196;4.428;2022-09-09T15:55:21;18.90;99.90
43946;DHT22;29599;51.196;4.428;2022-09-09T15:57:47;18.90;99.90
43946;DHT22;29599;51.196;4.428;2022-09-09T16:00:13;18.80;99.90
43946;DHT22;29599;51.196;4.428;2022-09-09T16:02:39;18.70;99.90
43946;DHT22;29599;51.196;4.428;2022-09-09T16:05:05;18.70;99.90
43946;DHT22;29599;51.196;4.428;2022-09-09T16:07:31;18.70;99.90
43946;DHT22;29599;51.196;4.428;2022-09-09T16:09:57;18.70;99.90
43946;DHT22;29599;51.196;4.428;2022-09-09T16:12:23;18.60;99.90
43946;DHT22;29599;51.196;4.428;2022-09-09T16:14:48;18.60;99.90
43946;DHT22;29599;51.196;4.428;2022-09-09T16:17:14;18.50;99.90
43946;DHT22;29599;51.196;4.428;2022-09-09T16:19:40;18.50;99.90
43946;DHT22;29599;51.196;4.428;2022-09-09T16:22:06;18.50;99.90
43946;DHT22;29599;51.196;4.428;2022-09-09T16:24:32;18.40;99.90
43946;DHT22;29599;51.196;4.428;2022-09-09T16:26:58;18.40;99.90
43946;DHT22;29599;51.196;4.428;2022-09-09T16:29:24;18.40;99.90
43946;DHT22;29599;51.196;4.428;2022-09-09T16:31:52;18.40;99.90
43946;DHT22;29599;51.196;4.428;2022-09-09T16:34:19;18.40;99.90
43946;DHT22;29599;51.196;4.428;2022-09-09T16:36:46;18.40;99.90
43946;DHT22;29599;51.196;4.428;2022-09-09T16:39:14;18.30;99.90
43946;DHT22;29599;51.196;4.428;2022-09-09T16:41:42;18.30;99.90
43946;DHT22;29599;51.196;4.428;2022-09-09T16:44:10;18.30;99.90
43946;DHT22;29599;51.196;4.428;2022-09-09T16:46:38;18.20;99.90
43946;DHT22;29599;51.196;4.428;2022-09-09T16:49:06;18.20;99.90
43946;DHT22;29599;51.196;4.428;2022-09-09T16:51:35;18.20;99.90
43946;DHT22;29599;51.196;4.428;2022-09-09T16:54:03;18.20;99.90
43946;DHT22;29599;51.196;4.428;2022-09-09T16:56:31;18.20;99.90
43946;DHT22;29599;51.196;4.428;2022-09-09T16:59:07;18.20;99.90
43946;DHT22;29599;51.196;4.428;2022-09-09T17:01:36;18.20;99.90
43946;DHT22;29599;51.196;4.428;2022-09-09T17:04:08;18.10;99.90
43946;DHT22;29599;51.196;4.428;2022-09-09T17:06:35;18.10;99.90
43946;DHT22;29599;51.196;4.428;2022-09-09T17:09:07;18.10;99.90
43946;DHT22;29599;51.196;4.428;2022-09-09T17:11:33;18.10;99.90
43946;DHT22;29599;51.196;4.428;2022-09-09T17:13:59;18.10;99.90
43946;DHT22;29599;51.196;4.428;2022-09-09T17:16:28;18.10;99.90
43946;DHT22;29599;51.196;4.428;2022-09-09T17:18:55;18.00;99.90
43946;DHT22;29599;51.196;4.428;2022-09-09T17:21:22;17.90;99.90
43946;DHT22;29599;51.196;4.428;2022-09-09T17:23:49;18.00;99.90
43946;DHT22;29599;51.196;4.428;2022-09-09T17:26:18;18.00;99.90
43946;DHT22;29599;51.196;4.428;2022-09-09T17:28:45;17.90;99.90
43946;DHT22;29599;51.196;4.428;2022-09-09T17:31:13;17.90;99.90
43946;DHT22;29599;51.196;4.428;2022-09-09T17:33:41;17.90;99.90
43946;DHT22;29599;51.196;4.428;2022-09-09T17:36:12;17.90;99.90
43946;DHT22;29599;51.196;4.428;2022-09-09T17:38:38;17.90;99.90
43946;DHT22;29599;51.196;4.428;2022-09-09T17:43:38;17.90;99.90
43946;DHT22;29599;51.196;4.428;2022-09-09T17:46:21;17.90;99.90
43946;DHT22;29599;51.196;4.428;2022-09-09T17:48:48;17.90;99.90
43946;DHT22;29599;51.196;4.428;2022-09-09T17:51:19;17.90;99.90
43946;DHT22;29599;51.196;4.428;2022-09-09T17:53:48;17.90;99.90
43946;DHT22;29599;51.196;4.428;2022-09-09T17:56:16;17.90;99.90
43946;DHT22;29599;51.196;4.428;2022-09-09T17:58:43;17.90;99.90